Etusivu
METAR-TAF:

METAR-TAF

Lentoasemat :

Kuwait, Kuwait

Kuwaitin kansainvälinen lentoasema

Leveyspiiri: 29-13N, Pituuspiiri: 047-59E, korkeus merenpinnasta: 55 m

Tämänhetkinen sää

Tämä raportti tehtiin 33 minuuttia sitten, kello 04.00 UTC
Tuuli 14 kn pohjoisen/luoteesta
Lämpötila 37°C
Kosteus 16%
Ilmanpaine 999 hPa
Näkyvyys 10 km tai enemmän
ei pilviä alle 1500 m:ssä eikä cumulonimbus-pilviä

METAR: OKBK 270400Z 34014KT CAVOK 37/07 Q0999 NOSIG

Aika: 07:33 (04:33 UTC)

Sääennuste

Tämä raportti tehtiin 5 tuntia ja 48 minuuttia sitten, kello 22.45 UTC
Ennuste voimassa 27. päivästä klo 00 UTC - 28. päivään klo 06 UTC
Tuuli 10 kn pohjoisen/luoteesta puuskistuen 20 kn:hen
Näkyvyys: 7000 m
selkeää
Ajoittain
27. päivästä klo 06 UTC - 27. päivään klo 15 UTC
Näkyvyys: 3000 m
pölymyrsky

TAF: OKBK 262245Z 2700/2806 34010G20KT 7000 SKC TEMPO 2706/2715 3000 BLDU

Säähavainnot ja -ennusteet yli 4000 lentoasemalta (METAR- ja TAF-raportit).

Käytössä olevat sääasemat on merkitty karttaan keltaisilla ja punaisilla pisteillä.

Aseta hiiri pisteen päälle nähdäksesi sääaseman nimen.

Klikkaa sitten nähdäksesi säähavainnot ja -ennusteet.

Kartan vaihtaminen: klikkaa mustalla rastilla varustettuja vihreitä pisteitä, niin voit zoomata sisään; viivalla varustettua vihreää pistettä, niin voit zoomata ulos tai vihreitä nuolia, niin pääset viereisille kartoille.


METAR-TAF: